sensor_id;sensor_type;location;lat;lon;timestamp;P1;durP1;ratioP1;P2;durP2;ratioP2
37445;SDS011;23307;51.136;14.942;2023-11-21T00:01:45;5.10;;;1.90;;
37445;SDS011;23307;51.136;14.942;2023-11-21T00:04:10;4.82;;;1.98;;
37445;SDS011;23307;51.136;14.942;2023-11-21T00:06:36;3.78;;;1.80;;
37445;SDS011;23307;51.136;14.942;2023-11-21T00:09:02;3.40;;;1.67;;
37445;SDS011;23307;51.136;14.942;2023-11-21T00:11:27;4.13;;;2.00;;
37445;SDS011;23307;51.136;14.942;2023-11-21T00:13:54;3.35;;;2.10;;
37445;SDS011;23307;51.136;14.942;2023-11-21T00:16:19;2.53;;;1.90;;
37445;SDS011;23307;51.136;14.942;2023-11-21T00:18:45;5.25;;;2.00;;
37445;SDS011;23307;51.136;14.942;2023-11-21T00:21:11;2.75;;;1.80;;
37445;SDS011;23307;51.136;14.942;2023-11-21T00:23:37;4.13;;;1.80;;
37445;SDS011;23307;51.136;14.942;2023-11-21T00:26:03;4.18;;;1.75;;
37445;SDS011;23307;51.136;14.942;2023-11-21T00:28:29;2.35;;;1.63;;
37445;SDS011;23307;51.136;14.942;2023-11-21T00:30:55;3.67;;;1.80;;
37445;SDS011;23307;51.136;14.942;2023-11-21T00:33:20;2.95;;;1.60;;
37445;SDS011;23307;51.136;14.942;2023-11-21T00:35:46;2.95;;;1.67;;
37445;SDS011;23307;51.136;14.942;2023-11-21T00:38:11;1.83;;;1.38;;
37445;SDS011;23307;51.136;14.942;2023-11-21T00:40:37;2.35;;;1.40;;
37445;SDS011;23307;51.136;14.942;2023-11-21T00:43:02;3.35;;;1.60;;
37445;SDS011;23307;51.136;14.942;2023-11-21T00:45:28;1.73;;;1.40;;
37445;SDS011;23307;51.136;14.942;2023-11-21T00:47:54;2.40;;;1.60;;
37445;SDS011;23307;51.136;14.942;2023-11-21T00:50:19;3.50;;;1.58;;
37445;SDS011;23307;51.136;14.942;2023-11-21T00:52:47;4.15;;;1.83;;
37445;SDS011;23307;51.136;14.942;2023-11-21T00:55:12;2.08;;;1.50;;
37445;SDS011;23307;51.136;14.942;2023-11-21T00:57:38;2.83;;;1.50;;
37445;SDS011;23307;51.136;14.942;2023-11-21T01:00:04;3.28;;;1.67;;
37445;SDS011;23307;51.136;14.942;2023-11-21T01:02:41;4.07;;;1.70;;
37445;SDS011;23307;51.136;14.942;2023-11-21T01:05:09;5.35;;;1.65;;
37445;SDS011;23307;51.136;14.942;2023-11-21T01:07:35;1.77;;;1.60;;
37445;SDS011;23307;51.136;14.942;2023-11-21T01:10:01;4.03;;;1.50;;
37445;SDS011;23307;51.136;14.942;2023-11-21T01:12:32;2.22;;;1.52;;
37445;SDS011;23307;51.136;14.942;2023-11-21T01:14:59;2.85;;;1.60;;
37445;SDS011;23307;51.136;14.942;2023-11-21T01:17:25;2.60;;;1.60;;
37445;SDS011;23307;51.136;14.942;2023-11-21T01:19:52;2.95;;;1.67;;
37445;SDS011;23307;51.136;14.942;2023-11-21T01:22:17;3.65;;;2.00;;
37445;SDS011;23307;51.136;14.942;2023-11-21T01:24:47;4.10;;;1.58;;
37445;SDS011;23307;51.136;14.942;2023-11-21T01:27:12;2.90;;;1.90;;
37445;SDS011;23307;51.136;14.942;2023-11-21T01:29:38;2.70;;;1.60;;
37445;SDS011;23307;51.136;14.942;2023-11-21T01:32:04;2.55;;;1.45;;
37445;SDS011;23307;51.136;14.942;2023-11-21T01:34:29;5.05;;;1.80;;
37445;SDS011;23307;51.136;14.942;2023-11-21T01:36:55;2.92;;;1.63;;
37445;SDS011;23307;51.136;14.942;2023-11-21T01:39:21;5.47;;;1.80;;
37445;SDS011;23307;51.136;14.942;2023-11-21T01:41:49;5.22;;;1.98;;
37445;SDS011;23307;51.136;14.942;2023-11-21T01:44:16;3.42;;;1.48;;
37445;SDS011;23307;51.136;14.942;2023-11-21T01:46:42;3.53;;;1.70;;
37445;SDS011;23307;51.136;14.942;2023-11-21T01:49:07;2.33;;;1.60;;
37445;SDS011;23307;51.136;14.942;2023-11-21T01:51:38;4.22;;;1.65;;
37445;SDS011;23307;51.136;14.942;2023-11-21T01:54:08;3.78;;;1.83;;
37445;SDS011;23307;51.136;14.942;2023-11-21T01:56:34;4.78;;;1.88;;
37445;SDS011;23307;51.136;14.942;2023-11-21T01:59:00;5.15;;;1.85;;
37445;SDS011;23307;51.136;14.942;2023-11-21T02:01:26;3.33;;;1.88;;
37445;SDS011;23307;51.136;14.942;2023-11-21T02:03:51;5.03;;;2.00;;
37445;SDS011;23307;51.136;14.942;2023-11-21T02:06:17;5.20;;;1.85;;
37445;SDS011;23307;51.136;14.942;2023-11-21T02:08:43;6.32;;;2.10;;
37445;SDS011;23307;51.136;14.942;2023-11-21T02:11:09;5.22;;;1.73;;
37445;SDS011;23307;51.136;14.942;2023-11-21T02:13:37;4.15;;;2.03;;
37445;SDS011;23307;51.136;14.942;2023-11-21T02:16:04;5.47;;;2.10;;
37445;SDS011;23307;51.136;14.942;2023-11-21T02:18:31;7.00;;;2.05;;
37445;SDS011;23307;51.136;14.942;2023-11-21T02:20:56;5.28;;;2.05;;
37445;SDS011;23307;51.136;14.942;2023-11-21T02:23:22;4.03;;;2.05;;
37445;SDS011;23307;51.136;14.942;2023-11-21T02:25:48;4.07;;;2.25;;
37445;SDS011;23307;51.136;14.942;2023-11-21T02:28:14;4.00;;;1.90;;
37445;SDS011;23307;51.136;14.942;2023-11-21T02:30:50;4.55;;;2.20;;
37445;SDS011;23307;51.136;14.942;2023-11-21T02:33:24;4.13;;;2.33;;
37445;SDS011;23307;51.136;14.942;2023-11-21T02:35:49;6.25;;;2.58;;
37445;SDS011;23307;51.136;14.942;2023-11-21T02:38:19;6.03;;;2.50;;
37445;SDS011;23307;51.136;14.942;2023-11-21T02:40:46;6.50;;;2.55;;
37445;SDS011;23307;51.136;14.942;2023-11-21T02:43:11;4.05;;;2.30;;
37445;SDS011;23307;51.136;14.942;2023-11-21T02:45:37;5.20;;;2.30;;
37445;SDS011;23307;51.136;14.942;2023-11-21T02:48:02;4.53;;;2.45;;
37445;SDS011;23307;51.136;14.942;2023-11-21T02:50:29;7.85;;;2.95;;
37445;SDS011;23307;51.136;14.942;2023-11-21T02:52:55;3.67;;;2.55;;
37445;SDS011;23307;51.136;14.942;2023-11-21T02:55:22;3.13;;;2.40;;
37445;SDS011;23307;51.136;14.942;2023-11-21T02:57:49;5.07;;;2.75;;
37445;SDS011;23307;51.136;14.942;2023-11-21T03:00:15;6.15;;;3.13;;
37445;SDS011;23307;51.136;14.942;2023-11-21T03:02:41;3.70;;;2.20;;
37445;SDS011;23307;51.136;14.942;2023-11-21T03:05:08;3.65;;;2.50;;
37445;SDS011;23307;51.136;14.942;2023-11-21T03:07:34;3.83;;;2.13;;
37445;SDS011;23307;51.136;14.942;2023-11-21T03:10:00;4.43;;;2.35;;
37445;SDS011;23307;51.136;14.942;2023-11-21T03:12:25;5.63;;;2.35;;
37445;SDS011;23307;51.136;14.942;2023-11-21T03:14:51;7.40;;;2.63;;
37445;SDS011;23307;51.136;14.942;2023-11-21T03:17:16;5.43;;;2.45;;
37445;SDS011;23307;51.136;14.942;2023-11-21T03:19:42;5.10;;;3.08;;
37445;SDS011;23307;51.136;14.942;2023-11-21T03:22:07;6.97;;;3.00;;
37445;SDS011;23307;51.136;14.942;2023-11-21T03:24:33;7.47;;;2.97;;
37445;SDS011;23307;51.136;14.942;2023-11-21T03:26:59;7.72;;;2.50;;
37445;SDS011;23307;51.136;14.942;2023-11-21T03:29:25;4.97;;;2.97;;
37445;SDS011;23307;51.136;14.942;2023-11-21T03:31:51;5.50;;;2.72;;
37445;SDS011;23307;51.136;14.942;2023-11-21T03:34:23;9.00;;;2.80;;
37445;SDS011;23307;51.136;14.942;2023-11-21T03:36:50;4.80;;;2.80;;
37445;SDS011;23307;51.136;14.942;2023-11-21T03:39:17;4.75;;;2.63;;
37445;SDS011;23307;51.136;14.942;2023-11-21T03:41:42;5.65;;;2.90;;
37445;SDS011;23307;51.136;14.942;2023-11-21T03:44:08;7.28;;;2.90;;
37445;SDS011;23307;51.136;14.942;2023-11-21T03:46:33;6.82;;;2.58;;
37445;SDS011;23307;51.136;14.942;2023-11-21T03:48:59;7.80;;;2.90;;
37445;SDS011;23307;51.136;14.942;2023-11-21T03:51:24;7.80;;;2.80;;
37445;SDS011;23307;51.136;14.942;2023-11-21T03:53:50;7.65;;;2.72;;
37445;SDS011;23307;51.136;14.942;2023-11-21T03:56:15;6.53;;;3.05;;
37445;SDS011;23307;51.136;14.942;2023-11-21T03:58:41;6.50;;;2.80;;
37445;SDS011;23307;51.136;14.942;2023-11-21T04:01:06;6.95;;;2.67;;
37445;SDS011;23307;51.136;14.942;2023-11-21T04:03:32;4.95;;;3.08;;
37445;SDS011;23307;51.136;14.942;2023-11-21T04:05:57;3.70;;;2.90;;
37445;SDS011;23307;51.136;14.942;2023-11-21T04:08:23;6.47;;;2.72;;
37445;SDS011;23307;51.136;14.942;2023-11-21T04:10:50;6.32;;;3.05;;
37445;SDS011;23307;51.136;14.942;2023-11-21T04:13:15;5.82;;;2.90;;
37445;SDS011;23307;51.136;14.942;2023-11-21T04:15:41;5.35;;;2.90;;
37445;SDS011;23307;51.136;14.942;2023-11-21T04:18:06;6.18;;;3.17;;
37445;SDS011;23307;51.136;14.942;2023-11-21T04:20:32;6.95;;;3.45;;
37445;SDS011;23307;51.136;14.942;2023-11-21T04:22:58;5.88;;;3.40;;
37445;SDS011;23307;51.136;14.942;2023-11-21T04:25:23;6.65;;;3.10;;
37445;SDS011;23307;51.136;14.942;2023-11-21T04:27:49;6.68;;;3.33;;
37445;SDS011;23307;51.136;14.942;2023-11-21T04:30:15;8.43;;;3.10;;
37445;SDS011;23307;51.136;14.942;2023-11-21T04:32:40;8.25;;;3.20;;
37445;SDS011;23307;51.136;14.942;2023-11-21T04:35:09;5.47;;;2.58;;
37445;SDS011;23307;51.136;14.942;2023-11-21T04:37:34;8.27;;;3.25;;
37445;SDS011;23307;51.136;14.942;2023-11-21T04:40:00;7.10;;;3.03;;
37445;SDS011;23307;51.136;14.942;2023-11-21T04:42:26;8.20;;;3.15;;
37445;SDS011;23307;51.136;14.942;2023-11-21T04:44:51;6.40;;;3.08;;
37445;SDS011;23307;51.136;14.942;2023-11-21T04:47:17;9.15;;;3.33;;
37445;SDS011;23307;51.136;14.942;2023-11-21T04:49:45;8.02;;;3.60;;
37445;SDS011;23307;51.136;14.942;2023-11-21T04:52:12;8.93;;;3.65;;
37445;SDS011;23307;51.136;14.942;2023-11-21T04:54:37;7.88;;;3.50;;
37445;SDS011;23307;51.136;14.942;2023-11-21T04:57:04;11.85;;;3.55;;
37445;SDS011;23307;51.136;14.942;2023-11-21T04:59:32;8.13;;;3.58;;
37445;SDS011;23307;51.136;14.942;2023-11-21T05:01:58;7.53;;;3.40;;
37445;SDS011;23307;51.136;14.942;2023-11-21T05:04:25;8.88;;;3.90;;
37445;SDS011;23307;51.136;14.942;2023-11-21T05:06:50;6.95;;;3.83;;
37445;SDS011;23307;51.136;14.942;2023-11-21T05:09:16;5.10;;;3.10;;
37445;SDS011;23307;51.136;14.942;2023-11-21T05:11:42;7.03;;;3.70;;
37445;SDS011;23307;51.136;14.942;2023-11-21T05:14:08;6.45;;;3.55;;
37445;SDS011;23307;51.136;14.942;2023-11-21T05:16:34;6.20;;;3.45;;
37445;SDS011;23307;51.136;14.942;2023-11-21T05:19:00;8.15;;;3.78;;
37445;SDS011;23307;51.136;14.942;2023-11-21T05:21:29;8.00;;;4.00;;
37445;SDS011;23307;51.136;14.942;2023-11-21T05:23:57;4.70;;;3.20;;
37445;SDS011;23307;51.136;14.942;2023-11-21T05:26:23;5.38;;;3.40;;
37445;SDS011;23307;51.136;14.942;2023-11-21T05:28:49;7.80;;;3.45;;
37445;SDS011;23307;51.136;14.942;2023-11-21T05:31:15;6.32;;;3.60;;
37445;SDS011;23307;51.136;14.942;2023-11-21T05:33:40;5.10;;;3.58;;
37445;SDS011;23307;51.136;14.942;2023-11-21T05:36:06;5.85;;;3.30;;
37445;SDS011;23307;51.136;14.942;2023-11-21T05:38:33;6.38;;;4.25;;
37445;SDS011;23307;51.136;14.942;2023-11-21T05:40:59;6.68;;;3.65;;
37445;SDS011;23307;51.136;14.942;2023-11-21T05:43:24;8.35;;;3.70;;
37445;SDS011;23307;51.136;14.942;2023-11-21T05:45:50;8.15;;;3.72;;
37445;SDS011;23307;51.136;14.942;2023-11-21T05:48:15;8.18;;;3.83;;
37445;SDS011;23307;51.136;14.942;2023-11-21T05:50:41;11.48;;;4.20;;
37445;SDS011;23307;51.136;14.942;2023-11-21T05:53:06;7.78;;;3.78;;
37445;SDS011;23307;51.136;14.942;2023-11-21T05:55:32;6.63;;;4.10;;
37445;SDS011;23307;51.136;14.942;2023-11-21T05:57:58;7.30;;;3.95;;
37445;SDS011;23307;51.136;14.942;2023-11-21T06:00:23;7.80;;;4.30;;
37445;SDS011;23307;51.136;14.942;2023-11-21T06:02:51;8.00;;;3.90;;
37445;SDS011;23307;51.136;14.942;2023-11-21T06:05:18;6.32;;;4.25;;
37445;SDS011;23307;51.136;14.942;2023-11-21T06:07:45;6.63;;;4.22;;
37445;SDS011;23307;51.136;14.942;2023-11-21T06:10:11;7.38;;;4.15;;
37445;SDS011;23307;51.136;14.942;2023-11-21T06:12:42;7.75;;;4.13;;
37445;SDS011;23307;51.136;14.942;2023-11-21T06:15:08;8.80;;;4.93;;
37445;SDS011;23307;51.136;14.942;2023-11-21T06:17:38;8.43;;;4.15;;
37445;SDS011;23307;51.136;14.942;2023-11-21T06:20:08;9.35;;;4.82;;
37445;SDS011;23307;51.136;14.942;2023-11-21T06:22:38;7.45;;;4.57;;
37445;SDS011;23307;51.136;14.942;2023-11-21T06:25:05;9.48;;;5.00;;
37445;SDS011;23307;51.136;14.942;2023-11-21T06:27:31;11.25;;;4.18;;
37445;SDS011;23307;51.136;14.942;2023-11-21T06:29:58;8.75;;;4.55;;
37445;SDS011;23307;51.136;14.942;2023-11-21T06:32:23;8.95;;;4.72;;
37445;SDS011;23307;51.136;14.942;2023-11-21T06:34:49;7.82;;;4.10;;
37445;SDS011;23307;51.136;14.942;2023-11-21T06:37:15;8.38;;;4.60;;
37445;SDS011;23307;51.136;14.942;2023-11-21T06:39:41;12.93;;;5.22;;
37445;SDS011;23307;51.136;14.942;2023-11-21T06:42:07;8.63;;;4.40;;
37445;SDS011;23307;51.136;14.942;2023-11-21T06:44:32;10.38;;;4.68;;
37445;SDS011;23307;51.136;14.942;2023-11-21T06:46:58;9.65;;;4.80;;
37445;SDS011;23307;51.136;14.942;2023-11-21T06:49:24;9.73;;;4.60;;
37445;SDS011;23307;51.136;14.942;2023-11-21T06:51:50;5.97;;;4.30;;
37445;SDS011;23307;51.136;14.942;2023-11-21T06:54:16;10.05;;;4.45;;
37445;SDS011;23307;51.136;14.942;2023-11-21T06:56:42;9.77;;;5.10;;
37445;SDS011;23307;51.136;14.942;2023-11-21T06:59:07;9.68;;;4.78;;
37445;SDS011;23307;51.136;14.942;2023-11-21T07:01:34;9.63;;;4.32;;
37445;SDS011;23307;51.136;14.942;2023-11-21T07:04:04;12.15;;;4.68;;
37445;SDS011;23307;51.136;14.942;2023-11-21T07:06:32;11.48;;;4.68;;
37445;SDS011;23307;51.136;14.942;2023-11-21T07:08:58;10.90;;;5.10;;
37445;SDS011;23307;51.136;14.942;2023-11-21T07:11:23;8.85;;;5.18;;
37445;SDS011;23307;51.136;14.942;2023-11-21T07:13:50;8.18;;;4.30;;
37445;SDS011;23307;51.136;14.942;2023-11-21T07:16:16;9.35;;;4.85;;
37445;SDS011;23307;51.136;14.942;2023-11-21T07:18:41;9.55;;;4.40;;
37445;SDS011;23307;51.136;14.942;2023-11-21T07:21:07;11.65;;;4.97;;
37445;SDS011;23307;51.136;14.942;2023-11-21T07:23:33;10.27;;;4.82;;
37445;SDS011;23307;51.136;14.942;2023-11-21T07:25:59;6.35;;;4.05;;
37445;SDS011;23307;51.136;14.942;2023-11-21T07:28:24;6.72;;;3.95;;
37445;SDS011;23307;51.136;14.942;2023-11-21T07:30:50;7.97;;;4.32;;
37445;SDS011;23307;51.136;14.942;2023-11-21T07:33:17;8.98;;;4.07;;
37445;SDS011;23307;51.136;14.942;2023-11-21T07:35:42;6.45;;;4.32;;
37445;SDS011;23307;51.136;14.942;2023-11-21T07:38:08;7.50;;;3.70;;
37445;SDS011;23307;51.136;14.942;2023-11-21T07:40:33;6.07;;;3.65;;
37445;SDS011;23307;51.136;14.942;2023-11-21T07:42:59;8.02;;;3.85;;
37445;SDS011;23307;51.136;14.942;2023-11-21T07:45:25;9.75;;;3.63;;
37445;SDS011;23307;51.136;14.942;2023-11-21T07:47:52;9.30;;;3.90;;
37445;SDS011;23307;51.136;14.942;2023-11-21T07:50:19;6.43;;;3.22;;
37445;SDS011;23307;51.136;14.942;2023-11-21T07:52:45;8.43;;;3.38;;
37445;SDS011;23307;51.136;14.942;2023-11-21T07:55:11;8.35;;;3.60;;
37445;SDS011;23307;51.136;14.942;2023-11-21T07:57:36;6.22;;;3.28;;
37445;SDS011;23307;51.136;14.942;2023-11-21T08:00:03;7.60;;;3.30;;
37445;SDS011;23307;51.136;14.942;2023-11-21T08:02:31;5.88;;;3.10;;
37445;SDS011;23307;51.136;14.942;2023-11-21T08:04:57;5.13;;;2.63;;
37445;SDS011;23307;51.136;14.942;2023-11-21T08:07:22;5.20;;;2.80;;
37445;SDS011;23307;51.136;14.942;2023-11-21T08:09:48;7.60;;;3.40;;
37445;SDS011;23307;51.136;14.942;2023-11-21T08:12:15;5.13;;;3.22;;
37445;SDS011;23307;51.136;14.942;2023-11-21T08:14:40;5.43;;;2.95;;
37445;SDS011;23307;51.136;14.942;2023-11-21T08:17:06;6.45;;;2.92;;
37445;SDS011;23307;51.136;14.942;2023-11-21T08:19:31;7.75;;;3.28;;
37445;SDS011;23307;51.136;14.942;2023-11-21T08:21:58;5.53;;;3.20;;
37445;SDS011;23307;51.136;14.942;2023-11-21T08:24:24;9.70;;;3.40;;
37445;SDS011;23307;51.136;14.942;2023-11-21T08:26:50;4.90;;;3.05;;
37445;SDS011;23307;51.136;14.942;2023-11-21T08:29:17;7.00;;;3.60;;
37445;SDS011;23307;51.136;14.942;2023-11-21T08:31:43;5.53;;;3.28;;
37445;SDS011;23307;51.136;14.942;2023-11-21T08:34:11;5.32;;;2.78;;
37445;SDS011;23307;51.136;14.942;2023-11-21T08:36:46;8.05;;;3.55;;
37445;SDS011;23307;51.136;14.942;2023-11-21T08:39:12;5.70;;;3.35;;
37445;SDS011;23307;51.136;14.942;2023-11-21T08:41:38;5.72;;;3.22;;
37445;SDS011;23307;51.136;14.942;2023-11-21T08:44:03;7.38;;;3.70;;
37445;SDS011;23307;51.136;14.942;2023-11-21T08:46:32;4.32;;;3.28;;
37445;SDS011;23307;51.136;14.942;2023-11-21T08:49:00;6.03;;;3.10;;
37445;SDS011;23307;51.136;14.942;2023-11-21T08:51:26;4.45;;;3.20;;
37445;SDS011;23307;51.136;14.942;2023-11-21T08:53:51;3.78;;;2.83;;
37445;SDS011;23307;51.136;14.942;2023-11-21T08:56:18;4.82;;;2.70;;
37445;SDS011;23307;51.136;14.942;2023-11-21T08:58:44;5.50;;;3.10;;
37445;SDS011;23307;51.136;14.942;2023-11-21T09:01:11;3.58;;;2.35;;
37445;SDS011;23307;51.136;14.942;2023-11-21T09:03:37;5.85;;;2.70;;
37445;SDS011;23307;51.136;14.942;2023-11-21T09:06:03;3.00;;;2.63;;
37445;SDS011;23307;51.136;14.942;2023-11-21T09:08:29;3.00;;;2.38;;
37445;SDS011;23307;51.136;14.942;2023-11-21T09:10:55;3.90;;;2.60;;
37445;SDS011;23307;51.136;14.942;2023-11-21T09:13:20;3.47;;;2.67;;
37445;SDS011;23307;51.136;14.942;2023-11-21T09:15:46;3.60;;;2.30;;
37445;SDS011;23307;51.136;14.942;2023-11-21T09:18:14;4.40;;;2.47;;
37445;SDS011;23307;51.136;14.942;2023-11-21T09:20:40;3.10;;;2.00;;
37445;SDS011;23307;51.136;14.942;2023-11-21T09:23:09;2.25;;;1.80;;
37445;SDS011;23307;51.136;14.942;2023-11-21T09:25:34;3.05;;;2.40;;
37445;SDS011;23307;51.136;14.942;2023-11-21T09:28:01;2.42;;;2.22;;
37445;SDS011;23307;51.136;14.942;2023-11-21T09:30:26;2.00;;;1.75;;
37445;SDS011;23307;51.136;14.942;2023-11-21T09:32:52;1.90;;;1.80;;
37445;SDS011;23307;51.136;14.942;2023-11-21T09:35:17;2.10;;;1.60;;
37445;SDS011;23307;51.136;14.942;2023-11-21T09:37:46;1.55;;;1.33;;
37445;SDS011;23307;51.136;14.942;2023-11-21T09:40:12;1.92;;;1.60;;
37445;SDS011;23307;51.136;14.942;2023-11-21T09:42:56;1.50;;;1.20;;
37445;SDS011;23307;51.136;14.942;2023-11-21T09:45:26;1.10;;;1.02;;
37445;SDS011;23307;51.136;14.942;2023-11-21T09:47:59;1.33;;;1.23;;
37445;SDS011;23307;51.136;14.942;2023-11-21T09:50:25;0.93;;;0.93;;
37445;SDS011;23307;51.136;14.942;2023-11-21T09:53:02;1.30;;;1.00;;
37445;SDS011;23307;51.136;14.942;2023-11-21T09:55:50;2.25;;;1.20;;
37445;SDS011;23307;51.136;14.942;2023-11-21T09:58:17;1.10;;;1.00;;
37445;SDS011;23307;51.136;14.942;2023-11-21T10:00:44;1.50;;;1.40;;
37445;SDS011;23307;51.136;14.942;2023-11-21T10:03:17;0.95;;;0.90;;
37445;SDS011;23307;51.136;14.942;2023-11-21T10:05:44;1.10;;;0.90;;
37445;SDS011;23307;51.136;14.942;2023-11-21T10:08:15;0.85;;;0.85;;
37445;SDS011;23307;51.136;14.942;2023-11-21T10:10:44;1.02;;;1.00;;
37445;SDS011;23307;51.136;14.942;2023-11-21T10:13:11;0.93;;;0.90;;
37445;SDS011;23307;51.136;14.942;2023-11-21T10:15:41;1.30;;;1.20;;
37445;SDS011;23307;51.136;14.942;2023-11-21T10:18:13;2.60;;;1.30;;
37445;SDS011;23307;51.136;14.942;2023-11-21T10:20:40;2.35;;;1.80;;
37445;SDS011;23307;51.136;14.942;2023-11-21T10:23:06;2.00;;;1.52;;
37445;SDS011;23307;51.136;14.942;2023-11-21T10:25:36;3.58;;;1.40;;
37445;SDS011;23307;51.136;14.942;2023-11-21T10:28:02;1.40;;;1.30;;
37445;SDS011;23307;51.136;14.942;2023-11-21T10:30:35;1.25;;;1.00;;
37445;SDS011;23307;51.136;14.942;2023-11-21T10:33:02;0.80;;;0.80;;
37445;SDS011;23307;51.136;14.942;2023-11-21T10:38:26;1.38;;;1.00;;
37445;SDS011;23307;51.136;14.942;2023-11-21T10:40:53;2.08;;;1.00;;
37445;SDS011;23307;51.136;14.942;2023-11-21T10:43:19;1.55;;;1.10;;
37445;SDS011;23307;51.136;14.942;2023-11-21T10:45:49;0.93;;;0.93;;
37445;SDS011;23307;51.136;14.942;2023-11-21T10:48:15;1.23;;;1.13;;
37445;SDS011;23307;51.136;14.942;2023-11-21T10:50:41;1.48;;;1.17;;
37445;SDS011;23307;51.136;14.942;2023-11-21T10:53:07;1.95;;;1.50;;
37445;SDS011;23307;51.136;14.942;2023-11-21T10:55:33;1.42;;;1.33;;
37445;SDS011;23307;51.136;14.942;2023-11-21T10:58:00;1.95;;;1.30;;
37445;SDS011;23307;51.136;14.942;2023-11-21T11:00:28;1.15;;;1.05;;
37445;SDS011;23307;51.136;14.942;2023-11-21T11:02:54;1.42;;;1.27;;
37445;SDS011;23307;51.136;14.942;2023-11-21T11:05:21;1.40;;;1.30;;
37445;SDS011;23307;51.136;14.942;2023-11-21T11:07:50;1.63;;;1.42;;
37445;SDS011;23307;51.136;14.942;2023-11-21T11:10:24;1.80;;;1.63;;
37445;SDS011;23307;51.136;14.942;2023-11-21T11:12:52;1.60;;;1.48;;
37445;SDS011;23307;51.136;14.942;2023-11-21T11:15:19;2.47;;;1.67;;
37445;SDS011;23307;51.136;14.942;2023-11-21T11:17:45;1.98;;;1.77;;
37445;SDS011;23307;51.136;14.942;2023-11-21T11:20:13;1.65;;;1.38;;
37445;SDS011;23307;51.136;14.942;2023-11-21T11:28:11;2.15;;;1.92;;
37445;SDS011;23307;51.136;14.942;2023-11-21T11:36:13;3.65;;;2.70;;
37445;SDS011;23307;51.136;14.942;2023-11-21T11:38:59;7.05;;;4.88;;
37445;SDS011;23307;51.136;14.942;2023-11-21T11:41:27;2.83;;;2.43;;
37445;SDS011;23307;51.136;14.942;2023-11-21T11:43:55;2.57;;;1.70;;
37445;SDS011;23307;51.136;14.942;2023-11-21T11:46:22;2.17;;;1.97;;
37445;SDS011;23307;51.136;14.942;2023-11-21T11:49:11;2.40;;;2.20;;
37445;SDS011;23307;51.136;14.942;2023-11-21T11:52:03;2.40;;;2.07;;
37445;SDS011;23307;51.136;14.942;2023-11-21T11:54:54;1.93;;;1.73;;
37445;SDS011;23307;51.136;14.942;2023-11-21T11:57:23;2.83;;;2.00;;
37445;SDS011;23307;51.136;14.942;2023-11-21T12:02:53;2.07;;;1.87;;
37445;SDS011;23307;51.136;14.942;2023-11-21T12:05:20;2.10;;;1.90;;
37445;SDS011;23307;51.136;14.942;2023-11-21T12:07:52;2.30;;;2.03;;
37445;SDS011;23307;51.136;14.942;2023-11-21T12:10:19;3.23;;;2.10;;
37445;SDS011;23307;51.136;14.942;2023-11-21T12:12:50;2.10;;;1.90;;
37445;SDS011;23307;51.136;14.942;2023-11-21T12:15:20;1.70;;;1.60;;
37445;SDS011;23307;51.136;14.942;2023-11-21T12:17:47;1.93;;;1.77;;
37445;SDS011;23307;51.136;14.942;2023-11-21T12:20:15;2.80;;;1.90;;
37445;SDS011;23307;51.136;14.942;2023-11-21T12:22:47;1.90;;;1.80;;
37445;SDS011;23307;51.136;14.942;2023-11-21T12:25:16;2.10;;;1.90;;
37445;SDS011;23307;51.136;14.942;2023-11-21T12:27:46;2.37;;;2.17;;
37445;SDS011;23307;51.136;14.942;2023-11-21T12:30:16;3.97;;;2.57;;
37445;SDS011;23307;51.136;14.942;2023-11-21T12:32:44;2.60;;;2.37;;
37445;SDS011;23307;51.136;14.942;2023-11-21T12:35:13;2.10;;;1.77;;
37445;SDS011;23307;51.136;14.942;2023-11-21T12:37:39;3.67;;;2.50;;
37445;SDS011;23307;51.136;14.942;2023-11-21T12:40:08;4.90;;;3.03;;
37445;SDS011;23307;51.136;14.942;2023-11-21T12:42:36;4.33;;;3.07;;
37445;SDS011;23307;51.136;14.942;2023-11-21T12:45:21;4.17;;;3.57;;
37445;SDS011;23307;51.136;14.942;2023-11-21T12:47:48;7.97;;;4.73;;
37445;SDS011;23307;51.136;14.942;2023-11-21T12:50:24;9.93;;;7.30;;
37445;SDS011;23307;51.136;14.942;2023-11-21T12:52:53;12.50;;;6.03;;
37445;SDS011;23307;51.136;14.942;2023-11-21T12:55:22;31.40;;;7.43;;
37445;SDS011;23307;51.136;14.942;2023-11-21T12:57:49;50.00;;;8.27;;
37445;SDS011;23307;51.136;14.942;2023-11-21T13:00:20;77.90;;;9.37;;
37445;SDS011;23307;51.136;14.942;2023-11-21T13:02:56;118.40;;;10.77;;
37445;SDS011;23307;51.136;14.942;2023-11-21T13:05:27;134.57;;;11.57;;
37445;SDS011;23307;51.136;14.942;2023-11-21T13:07:54;101.73;;;9.40;;
37445;SDS011;23307;51.136;14.942;2023-11-21T13:10:23;90.63;;;9.73;;
37445;SDS011;23307;51.136;14.942;2023-11-21T13:12:51;80.30;;;10.10;;
37445;SDS011;23307;51.136;14.942;2023-11-21T13:15:17;131.63;;;11.27;;
37445;SDS011;23307;51.136;14.942;2023-11-21T13:17:43;76.17;;;10.07;;
37445;SDS011;23307;51.136;14.942;2023-11-21T13:20:10;84.33;;;9.57;;
37445;SDS011;23307;51.136;14.942;2023-11-21T13:22:44;99.00;;;11.10;;
37445;SDS011;23307;51.136;14.942;2023-11-21T13:25:22;60.97;;;9.77;;
37445;SDS011;23307;51.136;14.942;2023-11-21T13:27:48;57.23;;;10.83;;
37445;SDS011;23307;51.136;14.942;2023-11-21T13:30:15;72.73;;;9.97;;
37445;SDS011;23307;51.136;14.942;2023-11-21T13:32:44;57.50;;;9.47;;
37445;SDS011;23307;51.136;14.942;2023-11-21T13:35:16;55.47;;;10.20;;
37445;SDS011;23307;51.136;14.942;2023-11-21T13:37:56;34.57;;;9.13;;
37445;SDS011;23307;51.136;14.942;2023-11-21T13:40:25;29.30;;;9.40;;
37445;SDS011;23307;51.136;14.942;2023-11-21T13:42:52;22.87;;;9.67;;
37445;SDS011;23307;51.136;14.942;2023-11-21T13:45:21;12.10;;;8.70;;
37445;SDS011;23307;51.136;14.942;2023-11-21T13:47:51;8.67;;;6.33;;
37445;SDS011;23307;51.136;14.942;2023-11-21T13:50:19;8.57;;;7.23;;
37445;SDS011;23307;51.136;14.942;2023-11-21T13:52:49;7.63;;;6.20;;
37445;SDS011;23307;51.136;14.942;2023-11-21T13:55:17;8.30;;;5.67;;
37445;SDS011;23307;51.136;14.942;2023-11-21T13:57:43;7.87;;;6.07;;
37445;SDS011;23307;51.136;14.942;2023-11-21T14:00:12;7.33;;;5.87;;
37445;SDS011;23307;51.136;14.942;2023-11-21T14:02:58;5.87;;;4.20;;
37445;SDS011;23307;51.136;14.942;2023-11-21T14:05:27;6.07;;;4.73;;
37445;SDS011;23307;51.136;14.942;2023-11-21T14:07:57;4.80;;;3.90;;
37445;SDS011;23307;51.136;14.942;2023-11-21T14:10:31;4.63;;;4.00;;
37445;SDS011;23307;51.136;14.942;2023-11-21T14:13:08;6.43;;;3.97;;
37445;SDS011;23307;51.136;14.942;2023-11-21T14:15:40;5.33;;;4.70;;
37445;SDS011;23307;51.136;14.942;2023-11-21T14:18:07;4.50;;;3.90;;
37445;SDS011;23307;51.136;14.942;2023-11-21T14:20:35;5.13;;;4.53;;
37445;SDS011;23307;51.136;14.942;2023-11-21T14:23:05;5.13;;;4.40;;
37445;SDS011;23307;51.136;14.942;2023-11-21T14:25:32;4.90;;;4.17;;
37445;SDS011;23307;51.136;14.942;2023-11-21T14:27:58;5.73;;;3.97;;
37445;SDS011;23307;51.136;14.942;2023-11-21T14:30:24;4.90;;;3.70;;
37445;SDS011;23307;51.136;14.942;2023-11-21T14:32:51;4.10;;;3.40;;
37445;SDS011;23307;51.136;14.942;2023-11-21T14:35:16;3.73;;;3.00;;
37445;SDS011;23307;51.136;14.942;2023-11-21T14:37:42;3.53;;;3.23;;
37445;SDS011;23307;51.136;14.942;2023-11-21T14:40:09;3.47;;;2.87;;
37445;SDS011;23307;51.136;14.942;2023-11-21T14:42:35;2.60;;;2.30;;
37445;SDS011;23307;51.136;14.942;2023-11-21T14:45:04;2.27;;;1.80;;
37445;SDS011;23307;51.136;14.942;2023-11-21T14:47:32;1.67;;;1.57;;
37445;SDS011;23307;51.136;14.942;2023-11-21T14:49:59;3.13;;;2.50;;
37445;SDS011;23307;51.136;14.942;2023-11-21T14:52:47;1.60;;;1.50;;